Time;durP1;ratioP1;P1;durP2;ratioP2;P2;SDS_P1;SDS_P2;PMS_P1;PMS_P2;Temp;Humidity;BMP_temperature;BMP_pressure;BME280_temperature;BME280_humidity;BME280_pressure;Samples;Min_cycle;Max_cycle;Signal;HPM_P1;HPM_P2
2022/05/14 00:01:17;;;;;;;6.95;3.72;;;;;;;18.04;48.56;93866.34;5064312;28;20215;-79
2022/05/14 00:03:43;;;;;;;6.55;4.15;;;;;;;17.97;49.18;93860.81;5064190;28;20017;-79
2022/05/14 00:06:15;;;;;;;9.70;4.00;;;;;;;17.95;49.41;93866.59;5064279;28;20039;-79
2022/05/14 00:08:41;;;;;;;8.60;4.25;;;;;;;17.95;48.65;93873.88;5064062;28;20278;-79
2022/05/14 00:13:51;;;;;;;6.00;3.38;;;;;;;17.86;48.38;93863.31;5064256;28;20060;-79
2022/05/14 00:16:18;;;;;;;13.27;4.90;;;;;;;17.86;48.26;93857.94;5063861;28;20554;-79
2022/05/14 00:18:44;;;;;;;7.53;3.55;;;;;;;17.81;48.71;93859.00;5063903;28;20025;-79
2022/05/14 00:21:10;;;;;;;5.85;3.80;;;;;;;17.81;48.12;93859.00;5063816;28;20021;-80
2022/05/14 00:23:36;;;;;;;11.57;3.78;;;;;;;17.81;48.74;93850.91;5063789;28;20377;-80
2022/05/14 00:26:02;;;;;;;7.65;3.95;;;;;;;17.80;48.48;93851.25;5063322;28;20036;-79
2022/05/14 00:28:28;;;;;;;9.75;3.88;;;;;;;17.80;48.47;93849.31;5046024;28;20255;-79
2022/05/14 00:30:54;;;;;;;8.13;4.07;;;;;;;17.82;48.43;93849.75;5063850;28;20025;-79
2022/05/14 00:33:20;;;;;;;9.32;4.20;;;;;;;17.84;49.01;93847.50;5063768;28;20319;-79
2022/05/14 00:35:46;;;;;;;8.05;4.20;;;;;;;17.84;48.87;93844.03;5063520;28;20036;-79
2022/05/14 00:38:12;;;;;;;16.58;4.88;;;;;;;17.84;49.34;93841.34;5063667;28;20053;-79
2022/05/14 00:40:46;;;;;;;10.68;4.65;;;;;;;17.78;49.79;93842.75;5063445;28;20105;-79
2022/05/14 00:43:12;;;;;;;7.80;3.58;;;;;;;17.73;50.15;93846.53;5045518;28;20033;-80
2022/05/14 00:45:46;;;;;;;11.30;4.45;;;;;;;17.67;50.37;93842.56;5063660;28;20076;-79
2022/05/14 00:48:12;;;;;;;12.15;4.32;;;;;;;17.59;50.86;93846.28;5063335;28;20029;-79
2022/05/14 00:50:41;;;;;;;8.38;4.78;;;;;;;17.53;50.98;93845.00;5063215;28;20255;-79
2022/05/14 00:53:12;;;;;;;5.72;3.92;;;;;;;17.45;51.25;93842.16;5063271;28;20020;-80
2022/05/14 00:55:39;;;;;;;9.93;5.10;;;;;;;17.36;51.43;93854.28;5063227;28;20029;-80
2022/05/14 00:58:07;;;;;;;7.53;5.03;;;;;;;17.29;51.76;93848.78;5063034;28;20016;-79
2022/05/14 01:00:32;;;;;;;10.77;5.45;;;;;;;17.22;52.13;93841.34;5063135;28;20017;-80
2022/05/14 01:02:58;;;;;;;14.35;4.78;;;;;;;17.17;52.10;93847.00;5063208;28;20021;-79
2022/05/14 01:05:24;;;;;;;6.68;4.40;;;;;;;17.11;52.48;93846.50;5063293;28;20036;-79
2022/05/14 01:07:52;;;;;;;7.60;4.93;;;;;;;17.05;52.76;93846.00;5062857;28;20024;-79
2022/05/14 01:10:23;;;;;;;7.75;4.78;;;;;;;16.95;53.02;93841.19;5062988;28;20024;-79
2022/05/14 01:12:57;;;;;;;12.48;4.50;;;;;;;16.92;53.14;93852.66;5063068;28;20078;-79
2022/05/14 01:15:35;;;;;;;9.40;5.03;;;;;;;16.89;53.34;93853.34;5063111;28;20028;-80
2022/05/14 01:18:01;;;;;;;10.63;4.65;;;;;;;16.83;53.66;93846.69;5045202;28;20065;-79
2022/05/14 01:20:27;;;;;;;6.57;4.40;;;;;;;16.76;54.03;93839.22;5062878;28;20066;-79
2022/05/14 01:23:21;;;;;;;6.78;4.57;;;;;;;16.68;54.58;93842.13;5045462;28;20020;-79
2022/05/14 01:26:29;;;;;;;12.35;4.35;;;;;;;16.57;54.86;93842.66;5048961;28;20048;-80
2022/05/14 01:28:59;;;;;;;9.23;4.75;;;;;;;16.50;54.90;93834.44;5062815;28;20028;-80
2022/05/14 01:31:27;;;;;;;9.52;4.50;;;;;;;16.47;55.21;93837.06;5062881;28;20041;-80
2022/05/14 01:33:53;;;;;;;8.80;5.03;;;;;;;16.42;55.48;93838.09;5062869;28;20025;-80
2022/05/14 01:36:18;;;;;;;8.68;4.78;;;;;;;16.36;55.31;93837.56;5062462;28;20020;-80
2022/05/14 01:38:44;;;;;;;16.15;4.82;;;;;;;16.35;55.26;93830.66;5062252;28;20384;-80
2022/05/14 01:41:09;;;;;;;8.15;4.90;;;;;;;16.32;55.58;93839.41;5062520;28;20028;-80
2022/05/14 01:43:36;;;;;;;10.02;4.70;;;;;;;16.29;55.75;93831.28;5062518;28;20021;-79
2022/05/14 01:46:02;;;;;;;7.18;4.60;;;;;;;16.23;55.97;93828.06;5062715;28;20047;-80
2022/05/14 01:48:28;;;;;;;8.23;4.68;;;;;;;16.20;56.07;93829.56;5062469;28;20090;-79
2022/05/14 01:50:53;;;;;;;9.90;5.50;;;;;;;16.15;56.28;93826.34;5062765;28;20250;-79
2022/05/14 01:53:19;;;;;;;7.63;4.75;;;;;;;16.14;56.39;93814.81;5062800;28;20025;-80
2022/05/14 01:55:44;;;;;;;9.80;5.10;;;;;;;16.11;56.46;93820.09;5062628;28;20032;-80
2022/05/14 02:00:54;;;;;;;6.60;4.60;;;;;;;16.05;56.63;93824.97;5062834;28;20020;-79
2022/05/14 02:03:19;;;;;;;10.18;5.63;;;;;;;15.98;56.82;93822.13;5062437;28;20021;-79
2022/05/14 02:05:45;;;;;;;9.63;4.65;;;;;;;15.98;56.89;93825.56;5062521;28;20091;-79
2022/05/14 02:08:11;;;;;;;8.88;4.85;;;;;;;15.95;56.78;93828.94;5061988;28;20218;-79
2022/05/14 02:10:37;;;;;;;9.80;5.60;;;;;;;15.94;56.98;93821.25;5062505;28;20043;-79
2022/05/14 02:13:05;;;;;;;8.80;4.88;;;;;;;15.81;57.25;93826.72;5062578;28;20021;-79
2022/05/14 02:15:30;;;;;;;9.32;4.80;;;;;;;15.81;57.21;93821.34;5062528;28;20024;-80
2022/05/14 02:17:57;;;;;;;7.68;4.93;;;;;;;15.81;57.14;93826.72;5062358;28;20020;-79
2022/05/14 02:20:24;;;;;;;10.55;4.45;;;;;;;15.81;57.05;93823.22;5062609;28;20024;-80
2022/05/14 02:22:49;;;;;;;8.57;6.18;;;;;;;15.81;56.96;93821.34;5062360;28;20021;-79
2022/05/14 02:25:19;;;;;;;10.32;5.43;;;;;;;15.83;57.38;93819.09;5062334;28;20029;-79
2022/05/14 02:27:45;;;;;;;6.72;4.35;;;;;;;15.82;57.29;93820.19;5062260;28;20025;-79
2022/05/14 02:30:12;;;;;;;8.32;4.60;;;;;;;15.83;56.76;93820.97;5062248;28;20020;-79
2022/05/14 02:32:38;;;;;;;8.90;4.55;;;;;;;15.87;57.09;93818.38;5061952;28;20088;-79
2022/05/14 02:35:05;;;;;;;9.98;4.55;;;;;;;15.87;56.89;93815.69;5062216;28;20094;-79
2022/05/14 02:37:30;;;;;;;8.75;4.93;;;;;;;15.87;56.91;93818.38;5062153;28;20016;-80
2022/05/14 02:39:56;;;;;;;8.88;4.72;;;;;;;15.88;57.00;93817.25;5062349;28;20259;-80
2022/05/14 02:42:21;;;;;;;10.23;5.20;;;;;;;15.84;57.59;93823.31;5061973;28;20047;-80
2022/05/14 02:44:47;;;;;;;17.42;5.45;;;;;;;15.74;58.10;93813.09;5062259;28;20036;-79
2022/05/14 02:47:12;;;;;;;11.65;4.70;;;;;;;15.59;58.94;93811.94;5061889;28;20028;-79
2022/05/14 02:49:38;;;;;;;10.57;5.47;;;;;;;15.56;59.09;93817.22;5064571;28;20070;-79
2022/05/14 02:52:05;;;;;;;7.72;5.50;;;;;;;15.63;58.86;93817.38;5065539;28;20238;-78
2022/05/14 02:54:30;;;;;;;8.88;5.07;;;;;;;15.63;58.87;93828.91;5065551;28;20025;-78
2022/05/14 02:56:56;;;;;;;8.32;4.93;;;;;;;15.63;58.74;93828.91;5065592;28;20028;-78
2022/05/14 02:59:21;;;;;;;9.75;5.22;;;;;;;15.62;58.92;93829.25;5065378;28;20029;-78
2022/05/14 03:01:50;;;;;;;10.48;5.10;;;;;;;15.61;59.01;93833.06;5065397;28;20044;-78
2022/05/14 03:04:22;;;;;;;15.75;5.95;;;;;;;15.62;59.13;93831.94;5065378;28;20031;-79
2022/05/14 03:06:49;;;;;;;13.55;5.50;;;;;;;15.59;59.30;93832.63;5047560;28;20021;-79
2022/05/14 03:09:15;;;;;;;10.95;5.75;;;;;;;15.56;59.07;93827.94;5057548;28;20036;-79
2022/05/14 03:11:40;;;;;;;10.60;5.05;;;;;;;15.55;58.98;93831.75;5065311;28;20039;-79
2022/05/14 03:14:06;;;;;;;9.68;5.10;;;;;;;15.53;58.97;93821.38;5064049;28;20329;-79
2022/05/14 03:16:31;;;;;;;10.77;5.90;;;;;;;15.53;58.82;93826.75;5065165;28;20040;-79
2022/05/14 03:18:57;;;;;;;9.07;5.60;;;;;;;15.55;58.73;93827.19;5065351;28;21039;-79
2022/05/14 03:21:22;;;;;;;9.52;5.25;;;;;;;15.55;58.76;93837.13;5065098;28;20088;-79
2022/05/14 03:23:47;;;;;;;9.50;5.20;;;;;;;15.56;59.07;93827.94;5065152;28;20268;-79
2022/05/14 03:26:13;;;;;;;7.65;5.35;;;;;;;15.57;59.13;93834.88;5064899;28;20052;-79
2022/05/14 03:28:38;;;;;;;10.50;5.53;;;;;;;15.60;59.18;93828.81;5064800;28;20033;-79
2022/05/14 03:31:04;;;;;;;9.43;5.80;;;;;;;15.59;58.99;93836.09;5064948;28;20330;-79
2022/05/14 03:33:31;;;;;;;12.48;6.10;;;;;;;15.60;59.24;93839.56;5064746;28;20024;-79
2022/05/14 03:35:57;;;;;;;8.15;4.90;;;;;;;15.57;59.00;93827.63;5064899;28;20028;-79
2022/05/14 03:38:22;;;;;;;14.38;5.18;;;;;;;15.61;58.54;93827.69;5064761;28;20048;-79
2022/05/14 03:40:48;;;;;;;8.43;5.40;;;;;;;15.65;58.39;93836.63;5064468;28;20025;-79
2022/05/14 03:43:14;;;;;;;11.50;5.15;;;;;;;15.70;58.38;93839.06;5064661;28;20017;-79
2022/05/14 03:45:39;;;;;;;15.27;5.60;;;;;;;15.72;58.79;93850.28;5064806;28;20021;-78
2022/05/14 03:48:05;;;;;;;12.02;5.75;;;;;;;15.72;58.74;93842.22;5064283;28;20254;-78
2022/05/14 03:50:30;;;;;;;8.20;5.38;;;;;;;15.77;58.85;93843.84;5064692;28;20052;-78
2022/05/14 03:52:57;;;;;;;7.95;5.60;;;;;;;15.79;58.99;93842.41;5064981;28;20029;-79
2022/05/14 03:55:22;;;;;;;8.98;5.47;;;;;;;15.83;59.18;93854.03;5064789;28;20021;-79
2022/05/14 03:57:48;;;;;;;11.98;5.93;;;;;;;15.85;59.16;93850.97;5064462;28;20064;-79
2022/05/14 04:00:14;;;;;;;7.10;5.13;;;;;;;15.88;59.05;93854.88;5063263;28;20408;-79
2022/05/14 04:02:40;;;;;;;9.77;5.68;;;;;;;15.92;59.03;93850.38;5064422;28;20250;-79
2022/05/14 04:05:06;;;;;;;12.02;5.43;;;;;;;15.91;59.20;93838.81;5064216;28;20024;-79
2022/05/14 04:07:31;;;;;;;7.70;5.72;;;;;;;15.93;59.33;93843.88;5064163;28;20028;-79
2022/05/14 04:09:57;;;;;;;11.73;5.68;;;;;;;15.99;59.43;93847.84;5064004;28;20035;-79
2022/05/14 04:12:23;;;;;;;14.57;6.00;;;;;;;16.02;59.71;93849.84;5064315;28;20021;-79
2022/05/14 04:14:48;;;;;;;11.00;6.45;;;;;;;16.09;59.56;93852.72;5046519;28;20028;-79
2022/05/14 04:17:14;;;;;;;14.18;5.95;;;;;;;16.17;59.96;93848.28;5063954;28;20020;-79
2022/05/14 04:19:39;;;;;;;17.83;6.40;;;;;;;16.24;59.64;93851.13;5063784;28;20025;-79
2022/05/14 04:22:05;;;;;;;11.38;6.10;;;;;;;16.30;60.05;93865.88;5063735;28;20058;-79
2022/05/14 04:24:32;;;;;;;11.35;6.60;;;;;;;16.37;60.30;93866.03;5064032;28;20017;-78
2022/05/14 04:26:58;;;;;;;11.48;6.97;;;;;;;16.43;58.99;93877.31;5063860;28;20051;-77
2022/05/14 04:29:24;;;;;;;11.00;6.60;;;;;;;16.44;58.26;93876.19;5063542;28;20020;-77
2022/05/14 04:31:49;;;;;;;12.45;7.30;;;;;;;16.44;58.50;93881.56;5063599;28;20272;-78
2022/05/14 04:34:14;;;;;;;13.95;7.57;;;;;;;16.48;58.56;93893.19;5063652;28;20020;-78
2022/05/14 04:36:40;;;;;;;17.33;7.70;;;;;;;16.53;58.27;93887.56;5063542;28;20327;-78
2022/05/14 04:39:06;;;;;;;18.88;8.50;;;;;;;16.59;57.65;93880.78;5063627;28;20059;-78
2022/05/14 04:41:31;;;;;;;17.90;7.40;;;;;;;16.63;57.56;93884.31;5063695;28;20023;-78
2022/05/14 04:43:58;;;;;;;18.50;7.80;;;;;;;16.72;57.86;93886.81;5063470;28;20012;-80
2022/05/14 04:46:23;;;;;;;15.52;8.00;;;;;;;16.76;57.56;93889.59;5063172;28;20021;-80
2022/05/14 04:48:49;;;;;;;20.90;8.27;;;;;;;16.84;56.39;93894.03;5063150;28;20025;-80
2022/05/14 04:51:14;;;;;;;19.92;8.77;;;;;;;16.93;56.06;93888.44;5063544;28;20021;-80
2022/05/14 04:53:40;;;;;;;19.30;7.85;;;;;;;17.02;56.12;93895.19;5063273;28;20021;-80
2022/05/14 04:56:05;;;;;;;14.43;8.90;;;;;;;17.12;55.52;93887.69;5063178;28;20028;-78
2022/05/14 04:58:31;;;;;;;13.50;7.70;;;;;;;17.21;56.14;93890.94;5063355;28;20021;-79
2022/05/14 05:00:56;;;;;;;19.58;9.15;;;;;;;17.31;56.44;93901.16;5063359;28;20021;-80
2022/05/14 05:03:22;;;;;;;21.77;8.27;;;;;;;17.34;55.72;93896.97;5063192;28;20044;-79
2022/05/14 05:05:53;;;;;;;19.25;8.73;;;;;;;17.37;55.56;93893.59;5063171;28;20035;-80
2022/05/14 05:08:19;;;;;;;20.40;9.50;;;;;;;17.39;54.78;93897.47;5062966;28;20338;-78
2022/05/14 05:10:46;;;;;;;19.90;9.13;;;;;;;17.45;54.67;93906.81;5063108;28;20020;-79
2022/05/14 05:13:16;;;;;;;15.45;8.50;;;;;;;17.45;54.84;93906.81;5062905;28;20021;-79
2022/05/14 05:15:42;;;;;;;16.42;7.72;;;;;;;17.38;54.71;93900.50;5062917;28;20044;-79
2022/05/14 05:18:08;;;;;;;20.42;7.90;;;;;;;17.35;54.72;93912.78;5062886;28;20009;-80
2022/05/14 05:20:35;;;;;;;19.65;8.82;;;;;;;17.29;55.52;93906.13;5063039;28;20084;-79
2022/05/14 05:23:01;;;;;;;18.23;7.60;;;;;;;17.24;55.60;93906.41;5062985;28;20086;-73
2022/05/14 05:25:27;;;;;;;12.90;7.97;;;;;;;17.24;56.69;93906.41;5062608;28;20025;-72
2022/05/14 05:27:52;;;;;;;19.15;8.35;;;;;;;17.27;56.21;93905.69;5062742;28;20250;-71
2022/05/14 05:30:18;;;;;;;26.85;8.48;;;;;;;17.27;55.47;93900.31;5062620;28;20029;-70
2022/05/14 05:32:43;;;;;;;17.50;7.60;;;;;;;17.30;55.83;93905.00;5062685;28;20127;-70
2022/05/14 05:35:09;;;;;;;14.50;7.82;;;;;;;17.34;56.40;93905.84;5062583;28;20024;-70
2022/05/14 05:37:34;;;;;;;13.70;7.78;;;;;;;17.37;55.11;93905.13;5062516;28;20083;-71
2022/05/14 05:40:00;;;;;;;15.90;8.07;;;;;;;17.41;55.44;93911.38;5062587;28;20025;-71
2022/05/14 05:42:26;;;;;;;21.52;8.20;;;;;;;17.49;55.60;93911.53;5062430;28;20025;-71
2022/05/14 05:44:52;;;;;;;38.63;8.85;;;;;;;17.54;56.19;93924.69;5062443;28;20021;-74
2022/05/14 05:47:17;;;;;;;30.20;8.52;;;;;;;17.56;56.08;93927.81;5062149;28;20029;-75
2022/05/14 05:49:43;;;;;;;16.33;6.82;;;;;;;17.48;54.49;93915.34;5062597;28;20021;-73
2022/05/14 05:52:11;;;;;;;36.72;8.90;;;;;;;17.58;54.23;93920.16;5062473;28;20021;-72
2022/05/14 05:57:29;;;;;;;33.67;8.55;;;;;;;17.78;54.23;93924.38;5062592;28;20044;-73
2022/05/14 05:59:55;;;;;;;29.33;9.70;;;;;;;17.95;54.01;93919.72;5062525;28;20025;-74
2022/05/14 06:02:20;;;;;;;20.60;8.40;;;;;;;18.16;53.76;93916.63;5062326;28;20032;-74
2022/05/14 06:04:45;;;;;;;18.92;8.02;;;;;;;18.38;53.64;93923.16;5062282;28;20028;-73
2022/05/14 06:07:11;;;;;;;18.45;7.97;;;;;;;18.61;53.20;93918.50;5062264;28;20055;-74
2022/05/14 06:09:36;;;;;;;22.73;8.48;;;;;;;18.90;53.17;93918.97;5062153;28;20262;-74
2022/05/14 06:12:02;;;;;;;11.05;7.03;;;;;;;19.16;52.25;93922.78;5062642;28;20248;-73
2022/05/14 06:14:27;;;;;;;20.75;7.65;;;;;;;19.36;51.93;93918.03;5062028;28;20227;-73
2022/05/14 06:16:53;;;;;;;16.50;7.90;;;;;;;19.56;52.06;93921.34;5062172;28;20078;-73
2022/05/14 06:19:19;;;;;;;16.23;7.72;;;;;;;19.69;51.93;93919.19;5062191;28;20013;-75
2022/05/14 06:21:45;;;;;;;25.63;8.73;;;;;;;19.83;53.14;93932.91;5062235;28;20021;-75
2022/05/14 06:24:10;;;;;;;17.33;7.93;;;;;;;19.99;52.59;93924.56;5064061;28;20342;-74
2022/05/14 06:26:37;;;;;;;14.95;6.50;;;;;;;20.13;51.34;93943.66;5066006;28;20025;-74
2022/05/14 06:29:04;;;;;;;13.23;6.88;;;;;;;20.24;51.51;93941.81;5066199;28;20025;-75
2022/05/14 06:31:29;;;;;;;16.88;7.45;;;;;;;20.31;50.99;93937.63;5066010;28;20043;-80
2022/05/14 06:33:55;;;;;;;11.95;5.43;;;;;;;20.25;49.77;93948.00;5065845;28;20048;-80
2022/05/14 06:36:20;;;;;;;11.23;6.93;;;;;;;20.12;49.56;93944.03;5065614;28;20338;-80
2022/05/14 06:38:46;;;;;;;10.02;5.72;;;;;;;20.04;50.25;93943.16;5066048;28;20081;-81
2022/05/14 06:41:13;;;;;;;14.15;6.88;;;;;;;20.04;51.36;93952.06;5066330;28;20025;-79
2022/05/14 06:43:40;;;;;;;17.13;7.45;;;;;;;20.15;51.63;93948.69;5065996;28;20032;-75
2022/05/14 06:46:06;;;;;;;15.25;7.18;;;;;;;20.29;52.14;93942.63;5065992;28;20025;-79
2022/05/14 06:48:31;;;;;;;12.57;5.90;;;;;;;20.38;50.46;93951.22;5065940;28;20052;-77
2022/05/14 06:51:02;;;;;;;13.45;6.28;;;;;;;20.38;49.05;93941.19;5065753;28;20315;-77
2022/05/14 06:53:28;;;;;;;10.00;6.03;;;;;;;20.43;51.05;93942.75;5065578;28;20025;-80
2022/05/14 06:55:58;;;;;;;15.25;7.03;;;;;;;20.59;50.63;93946.03;5065335;28;20315;-77
2022/05/14 06:58:32;;;;;;;14.88;7.20;;;;;;;20.61;50.21;93943.72;5065389;28;20303;-77
2022/05/14 07:00:59;;;;;;;14.65;7.55;;;;;;;20.69;50.33;93944.56;5065395;28;20051;-77
2022/05/14 07:08:54;;;;;;;10.35;6.18;;;;;;;21.02;48.52;93950.97;5065198;28;20116;-75
2022/05/14 07:11:20;;;;;;;15.65;6.60;;;;;;;21.11;49.75;93953.38;5065079;28;20020;-75
2022/05/14 07:13:46;;;;;;;11.73;5.95;;;;;;;21.24;49.50;93957.31;5065199;28;20021;-76
2022/05/14 07:16:12;;;;;;;11.90;6.07;;;;;;;21.23;48.26;93953.84;5065208;28;20329;-77
2022/05/14 07:18:37;;;;;;;13.60;7.38;;;;;;;21.21;48.04;93949.97;5064685;28;20048;-80
2022/05/14 07:21:03;;;;;;;12.05;6.25;;;;;;;21.24;47.17;93951.91;5064930;28;20353;-80
2022/05/14 07:23:30;;;;;;;12.43;5.78;;;;;;;21.31;47.38;93951.16;5064895;28;20021;-79
2022/05/14 07:26:05;;;;;;;14.88;6.00;;;;;;;21.27;47.14;93955.78;5064743;28;20021;-79
2022/05/14 07:28:33;;;;;;;12.77;5.63;;;;;;;21.33;47.10;93962.41;5064529;28;20032;-78
2022/05/14 07:31:00;;;;;;;12.00;6.47;;;;;;;21.29;47.27;93962.41;5064985;28;20035;-79
2022/05/14 07:33:26;;;;;;;7.32;5.47;;;;;;;21.30;47.95;93966.66;5064759;28;20078;-79
2022/05/14 07:35:52;;;;;;;9.65;6.20;;;;;;;21.31;48.23;93967.41;5063603;28;20100;-79
2022/05/14 07:38:18;;;;;;;13.23;5.90;;;;;;;21.44;48.03;93969.47;5064472;28;20049;-78
2022/05/14 07:40:44;;;;;;;11.00;6.70;;;;;;;21.55;46.90;93979.59;5064698;28;20032;-79
2022/05/14 07:43:21;;;;;;;17.27;6.25;;;;;;;21.42;46.92;93977.19;5064713;28;20036;-79
2022/05/14 07:45:56;;;;;;;8.65;6.18;;;;;;;21.47;46.60;93975.28;5064565;28;20025;-79
2022/05/14 07:48:29;;;;;;;7.55;5.55;;;;;;;21.44;48.08;93974.88;5064369;28;20024;-79
2022/05/14 07:50:54;;;;;;;13.73;6.32;;;;;;;21.45;47.04;93981.09;5064550;28;20016;-78
2022/05/14 07:53:20;;;;;;;15.93;7.20;;;;;;;21.53;47.32;93977.25;5062726;28;20304;-79
2022/05/14 07:55:46;;;;;;;11.25;6.53;;;;;;;21.63;46.80;93981.19;5062694;28;20375;-78
2022/05/14 07:59:08;;;;;;;11.60;6.57;;;;;;;21.73;47.87;93975.03;5062421;28;20084;-83
2022/05/14 08:01:34;;;;;;;17.33;7.57;;;;;;;21.88;46.24;93972.38;5043511;28;20079;-78
2022/05/14 08:03:59;;;;;;;16.02;7.47;;;;;;;22.04;47.67;93973.59;5062050;28;20025;-78
2022/05/14 08:06:24;;;;;;;11.52;6.35;;;;;;;22.14;45.76;93974.78;5061993;28;20078;-79
2022/05/14 08:08:51;;;;;;;20.17;7.15;;;;;;;22.17;45.26;93974.03;5063053;28;20383;-77
2022/05/14 08:11:17;;;;;;;8.68;5.85;;;;;;;22.29;45.25;93970.22;5063287;28;20024;-78
2022/05/14 08:13:43;;;;;;;9.07;5.82;;;;;;;22.40;44.88;93978.38;5063479;28;20227;-78
2022/05/14 08:16:09;;;;;;;13.00;5.97;;;;;;;22.47;44.59;93975.69;5063869;28;20040;-78
2022/05/14 08:18:34;;;;;;;12.77;6.30;;;;;;;22.45;45.49;93969.84;5064094;28;20211;-78
2022/05/14 08:24:29;;;;;;;12.63;6.75;;;;;;;22.50;44.79;93964.03;5064060;28;20196;-78
2022/05/14 08:26:29;;;;;;;17.40;7.13;;;;;;;22.62;45.05;93966.38;5062200;28;20070;-78
2022/05/14 08:28:55;;;;;;;10.60;6.70;;;;;;;22.73;44.57;93971.03;5062028;28;20108;-78
2022/05/14 08:31:20;;;;;;;19.60;6.88;;;;;;;22.70;45.30;93961.72;5062046;28;20076;-78
2022/05/14 08:33:45;;;;;;;17.90;7.68;;;;;;;22.74;45.19;93950.84;5062157;28;20029;-78
2022/05/14 08:36:11;;;;;;;14.40;7.20;;;;;;;22.65;44.63;93956.66;5061962;28;20024;-77
2022/05/14 08:38:36;;;;;;;17.15;6.38;;;;;;;22.62;45.07;93963.66;5062340;28;20021;-77
2022/05/14 08:41:04;;;;;;;16.30;6.80;;;;;;;22.65;43.90;93962.09;5062749;28;20075;-77
2022/05/14 08:43:39;;;;;;;9.48;5.72;;;;;;;22.66;44.51;93960.94;5063440;28;20066;-77
2022/05/14 08:46:17;;;;;;;16.48;6.82;;;;;;;22.79;44.67;93956.66;5063045;28;20029;-77
2022/05/14 08:48:48;;;;;;;13.60;6.07;;;;;;;22.91;44.52;93960.94;5063255;28;20033;-77
2022/05/14 08:51:18;;;;;;;13.77;6.75;;;;;;;23.09;44.48;93957.47;5063436;28;20029;-78
2022/05/14 08:53:47;;;;;;;13.27;6.15;;;;;;;23.11;43.97;93958.63;5062976;28;20353;-78
2022/05/14 08:56:21;;;;;;;19.85;7.68;;;;;;;23.11;44.09;93963.28;5063312;28;20021;-78
2022/05/14 08:59:05;;;;;;;12.32;6.80;;;;;;;23.12;42.91;93959.38;5063187;28;20021;-77
2022/05/14 09:01:35;;;;;;;17.38;6.40;;;;;;;23.17;43.64;93951.63;5063266;28;20204;-78
2022/05/14 09:04:01;;;;;;;12.77;6.72;;;;;;;23.21;44.93;93959.78;5062983;28;20248;-77
2022/05/14 09:06:26;;;;;;;14.40;6.68;;;;;;;23.16;44.59;93955.50;5063028;28;20035;-77
2022/05/14 09:08:52;;;;;;;15.68;6.43;;;;;;;23.18;44.31;93947.75;5062964;28;20049;-77
2022/05/14 09:11:28;;;;;;;14.80;6.13;;;;;;;23.28;44.35;93959.75;5063101;28;20024;-77
2022/05/14 09:13:57;;;;;;;9.80;6.80;;;;;;;23.37;43.09;93965.56;5063190;28;20017;-77
2022/05/14 09:16:25;;;;;;;13.45;5.80;;;;;;;23.49;43.32;93983.41;5063052;28;20039;-78
2022/05/14 09:18:53;;;;;;;13.13;5.57;;;;;;;23.56;43.13;93982.63;5062681;28;20036;-78
2022/05/14 09:21:24;;;;;;;12.77;5.85;;;;;;;23.54;43.35;93984.94;5062645;28;20029;-78
2022/05/14 09:23:54;;;;;;;12.38;5.97;;;;;;;23.81;42.60;93975.19;5062684;28;20063;-78
2022/05/14 09:26:39;;;;;;;11.10;6.30;;;;;;;23.97;41.07;93969.28;5062870;28;20029;-77
2022/05/14 09:29:26;;;;;;;11.25;5.80;;;;;;;24.23;41.09;93967.97;5063230;28;20029;-78
2022/05/14 09:32:05;;;;;;;13.45;5.85;;;;;;;24.53;41.79;93958.50;5062781;28;20311;-77
2022/05/14 09:34:34;;;;;;;8.23;4.88;;;;;;;24.60;39.57;93955.72;5062700;28;20021;-77
2022/05/14 09:37:06;;;;;;;13.32;5.25;;;;;;;24.58;39.87;93963.50;5044892;28;20196;-77
2022/05/14 09:39:31;;;;;;;9.50;5.45;;;;;;;24.57;39.28;93958.47;5062875;28;20029;-77
2022/05/14 09:42:00;;;;;;;10.88;5.82;;;;;;;24.56;40.56;93946.00;5062867;28;20319;-78
2022/05/14 09:44:35;;;;;;;6.72;5.30;;;;;;;24.67;39.18;93952.19;5062488;28;20028;-78
2022/05/14 09:47:15;;;;;;;16.45;5.47;;;;;;;24.69;39.77;93957.19;5062306;28;20033;-79
2022/05/14 09:50:02;;;;;;;12.80;5.35;;;;;;;24.40;41.06;93947.28;5062609;28;20040;-78
2022/05/14 09:52:33;;;;;;;14.20;5.45;;;;;;;23.97;42.92;93957.63;5049301;28;20037;-79
2022/05/14 09:55:01;;;;;;;11.98;5.53;;;;;;;23.71;47.78;93973.25;5062380;28;20029;-78
2022/05/14 09:57:58;;;;;;;18.17;6.00;;;;;;;23.13;49.04;93971.81;5062156;28;20311;-78
2022/05/14 10:00:29;;;;;;;18.27;6.35;;;;;;;22.81;50.94;93978.78;5066702;28;20319;-78
2022/05/14 10:03:37;;;;;;;17.83;6.93;;;;;;;22.75;53.44;93974.13;5066677;28;20219;-78
2022/05/14 10:06:45;;;;;;;16.77;7.68;;;;;;;22.70;53.43;93980.72;5066373;28;20033;-78
2022/05/14 10:09:25;;;;;;;10.45;7.40;;;;;;;22.67;53.22;93980.72;5030128;28;20103;-78
2022/05/14 10:12:00;;;;;;;17.23;9.35;;;;;;;22.62;55.23;93976.47;5066336;28;20031;-79
2022/05/14 10:14:57;;;;;;;20.13;8.07;;;;;;;22.74;54.93;93991.59;5065359;28;20040;-79
2022/05/14 10:17:26;;;;;;;18.70;7.70;;;;;;;22.85;56.59;93986.94;5066082;28;20084;-79
2022/05/14 10:20:30;;;;;;;16.10;8.88;;;;;;;22.86;57.22;93996.66;5065473;28;20040;-79
2022/05/14 10:26:45;;;;;;;11.40;8.32;;;;;;;23.33;56.67;93985.78;5065999;28;20023;-79
2022/05/14 10:29:44;;;;;;;12.45;6.95;;;;;;;23.38;50.22;93996.25;5066032;28;20029;-79
2022/05/14 10:32:18;;;;;;;15.50;7.65;;;;;;;23.56;52.67;93990.78;5066054;28;20025;-79
2022/05/14 10:34:51;;;;;;;14.32;7.95;;;;;;;23.80;51.01;93989.94;5065814;28;20123;-79
2022/05/14 10:37:27;;;;;;;12.27;7.88;;;;;;;24.08;51.60;93988.28;5065964;28;20020;-78
2022/05/14 10:40:06;;;;;;;11.20;7.72;;;;;;;24.32;50.60;93983.09;5066074;28;20028;-78
2022/05/14 10:42:41;;;;;;;14.13;6.90;;;;;;;24.68;48.79;93972.78;5065895;28;20044;-78
2022/05/14 10:45:17;;;;;;;15.48;7.38;;;;;;;25.06;47.26;93980.31;5065727;28;20100;-79
2022/05/14 10:47:47;;;;;;;12.57;7.30;;;;;;;25.36;46.09;93972.25;5065661;28;20327;-79
2022/05/14 10:50:20;;;;;;;14.57;6.90;;;;;;;25.45;47.11;93957.34;5065618;28;20391;-79
2022/05/14 10:52:49;;;;;;;13.55;7.47;;;;;;;25.49;46.43;93960.81;5065591;28;20070;-79
2022/05/14 10:55:23;;;;;;;11.38;7.10;;;;;;;25.43;46.24;93963.97;5065654;28;20097;-79
2022/05/14 10:57:56;;;;;;;15.20;7.22;;;;;;;25.42;46.03;93965.19;5065421;28;20092;-78
2022/05/14 11:00:37;;;;;;;21.67;8.45;;;;;;;25.41;47.06;93969.06;5065453;28;20029;-79
2022/05/14 11:03:24;;;;;;;24.02;9.38;;;;;;;25.34;48.89;93971.88;5065697;28;20028;-79
2022/05/14 11:06:02;;;;;;;20.45;9.48;;;;;;;25.30;49.70;93962.16;5065705;28;20100;-80
2022/05/14 11:08:45;;;;;;;17.30;9.30;;;;;;;25.28;49.61;93954.41;5065317;28;20039;-79
2022/05/14 11:11:21;;;;;;;12.05;7.43;;;;;;;25.31;51.42;93953.59;5065091;28;20323;-79
2022/05/14 11:14:05;;;;;;;17.50;7.63;;;;;;;25.23;51.04;93947.41;5065086;28;20043;-79
2022/05/14 11:16:44;;;;;;;12.70;8.13;;;;;;;25.23;52.24;93952.88;5065087;28;20024;-79
2022/05/14 11:19:23;;;;;;;18.40;8.40;;;;;;;25.21;52.16;93954.47;5065153;28;20262;-79
2022/05/14 11:21:49;;;;;;;15.18;7.97;;;;;;;25.21;51.42;93947.06;5047257;28;20059;-79
2022/05/14 11:24:15;;;;;;;18.98;7.82;;;;;;;25.25;51.50;93955.19;5065311;28;20041;-79
2022/05/14 11:26:47;;;;;;;12.63;7.38;;;;;;;25.33;52.63;93945.78;5064866;28;20193;-79
2022/05/14 11:29:26;;;;;;;14.70;7.07;;;;;;;25.60;49.89;93947.81;5064773;28;20020;-79
2022/05/14 11:32:07;;;;;;;11.60;6.78;;;;;;;25.91;47.93;93951.41;5064783;28;20315;-79
2022/05/14 11:34:33;;;;;;;8.48;5.55;;;;;;;26.04;40.24;93929.00;5064657;28;20116;-79
2022/05/14 11:37:02;;;;;;;10.73;4.65;;;;;;;25.99;38.29;93947.41;5064523;28;20024;-79
2022/05/14 11:39:34;;;;;;;9.80;4.80;;;;;;;25.86;39.38;93935.44;5064720;28;20101;-79
2022/05/14 11:42:10;;;;;;;9.95;4.75;;;;;;;25.77;37.92;93940.63;5064691;28;20024;-79
2022/05/14 11:44:52;;;;;;;8.43;4.03;;;;;;;25.75;35.58;93924.66;5064511;28;20028;-79
2022/05/14 11:47:44;;;;;;;12.07;4.57;;;;;;;25.83;36.03;93923.38;5064414;28;20028;-79
2022/05/14 11:50:13;;;;;;;9.70;3.75;;;;;;;25.88;35.44;93924.13;5036243;28;20033;-79
2022/05/14 11:53:06;;;;;;;5.40;3.97;;;;;;;25.90;42.58;93932.69;5065028;28;20048;-80
2022/05/14 11:55:48;;;;;;;7.97;3.28;;;;;;;25.69;35.21;93937.19;5063753;28;20021;-78
2022/05/14 11:58:40;;;;;;;8.77;3.83;;;;;;;25.40;36.07;93937.53;5064080;28;20157;-78